sensor_id;sensor_type;location;lat;lon;timestamp;P1;durP1;ratioP1;P2;durP2;ratioP2
18228;SDS011;9239;50.932;3.142;2022-12-29T00:01:24;1.10;;;0.57;;
18228;SDS011;9239;50.932;3.142;2022-12-29T00:03:51;0.80;;;0.70;;
18228;SDS011;9239;50.932;3.142;2022-12-29T00:06:18;1.30;;;0.77;;
18228;SDS011;9239;50.932;3.142;2022-12-29T00:08:45;0.60;;;0.60;;
18228;SDS011;9239;50.932;3.142;2022-12-29T00:11:14;1.43;;;0.60;;
18228;SDS011;9239;50.932;3.142;2022-12-29T00:13:42;1.30;;;0.70;;
18228;SDS011;9239;50.932;3.142;2022-12-29T00:16:27;0.80;;;0.70;;
18228;SDS011;9239;50.932;3.142;2022-12-29T00:18:54;1.63;;;0.83;;
18228;SDS011;9239;50.932;3.142;2022-12-29T00:21:21;2.40;;;0.60;;
18228;SDS011;9239;50.932;3.142;2022-12-29T00:24:08;1.73;;;1.10;;
18228;SDS011;9239;50.932;3.142;2022-12-29T00:26:58;2.23;;;0.70;;
18228;SDS011;9239;50.932;3.142;2022-12-29T00:29:53;0.70;;;0.70;;
18228;SDS011;9239;50.932;3.142;2022-12-29T00:32:37;0.97;;;0.57;;
18228;SDS011;9239;50.932;3.142;2022-12-29T00:35:25;1.90;;;0.70;;
18228;SDS011;9239;50.932;3.142;2022-12-29T00:37:54;2.50;;;0.80;;
18228;SDS011;9239;50.932;3.142;2022-12-29T00:40:40;0.63;;;0.60;;
18228;SDS011;9239;50.932;3.142;2022-12-29T00:43:26;2.27;;;0.70;;
18228;SDS011;9239;50.932;3.142;2022-12-29T00:46:11;3.43;;;0.90;;
18228;SDS011;9239;50.932;3.142;2022-12-29T00:48:37;1.20;;;0.80;;
18228;SDS011;9239;50.932;3.142;2022-12-29T00:51:22;1.97;;;0.70;;
18228;SDS011;9239;50.932;3.142;2022-12-29T00:53:48;2.33;;;0.70;;
18228;SDS011;9239;50.932;3.142;2022-12-29T00:56:15;2.23;;;1.00;;
18228;SDS011;9239;50.932;3.142;2022-12-29T00:58:43;1.57;;;0.77;;
18228;SDS011;9239;50.932;3.142;2022-12-29T01:01:10;2.63;;;1.03;;
18228;SDS011;9239;50.932;3.142;2022-12-29T01:03:37;3.03;;;1.00;;
18228;SDS011;9239;50.932;3.142;2022-12-29T01:06:05;1.17;;;0.70;;
18228;SDS011;9239;50.932;3.142;2022-12-29T01:08:33;1.83;;;0.70;;
18228;SDS011;9239;50.932;3.142;2022-12-29T01:11:01;1.37;;;0.90;;
18228;SDS011;9239;50.932;3.142;2022-12-29T01:13:29;2.30;;;1.03;;
18228;SDS011;9239;50.932;3.142;2022-12-29T01:15:57;2.63;;;1.00;;
18228;SDS011;9239;50.932;3.142;2022-12-29T01:18:25;3.23;;;1.07;;
18228;SDS011;9239;50.932;3.142;2022-12-29T01:20:57;4.63;;;1.10;;
18228;SDS011;9239;50.932;3.142;2022-12-29T01:23:24;1.67;;;1.00;;
18228;SDS011;9239;50.932;3.142;2022-12-29T01:25:51;4.17;;;1.40;;
18228;SDS011;9239;50.932;3.142;2022-12-29T01:28:18;5.00;;;1.00;;
18228;SDS011;9239;50.932;3.142;2022-12-29T01:30:45;4.13;;;1.03;;
18228;SDS011;9239;50.932;3.142;2022-12-29T01:33:13;4.10;;;0.90;;
18228;SDS011;9239;50.932;3.142;2022-12-29T01:35:40;2.07;;;0.80;;
18228;SDS011;9239;50.932;3.142;2022-12-29T01:38:07;5.30;;;1.00;;
18228;SDS011;9239;50.932;3.142;2022-12-29T01:40:34;3.67;;;1.10;;
18228;SDS011;9239;50.932;3.142;2022-12-29T01:43:09;4.37;;;1.57;;
18228;SDS011;9239;50.932;3.142;2022-12-29T01:45:38;2.87;;;1.17;;
18228;SDS011;9239;50.932;3.142;2022-12-29T01:48:08;2.53;;;0.90;;
18228;SDS011;9239;50.932;3.142;2022-12-29T01:50:39;2.73;;;1.10;;
18228;SDS011;9239;50.932;3.142;2022-12-29T01:53:10;3.53;;;1.20;;
18228;SDS011;9239;50.932;3.142;2022-12-29T01:55:40;2.80;;;1.20;;
18228;SDS011;9239;50.932;3.142;2022-12-29T01:58:10;4.10;;;1.20;;
18228;SDS011;9239;50.932;3.142;2022-12-29T02:00:40;5.43;;;1.47;;
18228;SDS011;9239;50.932;3.142;2022-12-29T02:03:07;4.63;;;1.30;;
18228;SDS011;9239;50.932;3.142;2022-12-29T02:05:36;3.97;;;1.43;;
18228;SDS011;9239;50.932;3.142;2022-12-29T02:08:08;4.73;;;1.60;;
18228;SDS011;9239;50.932;3.142;2022-12-29T02:10:36;3.93;;;1.13;;
18228;SDS011;9239;50.932;3.142;2022-12-29T02:13:03;5.63;;;1.23;;
18228;SDS011;9239;50.932;3.142;2022-12-29T02:15:35;4.80;;;1.43;;
18228;SDS011;9239;50.932;3.142;2022-12-29T02:18:12;4.50;;;1.57;;
18228;SDS011;9239;50.932;3.142;2022-12-29T02:20:58;4.90;;;1.60;;
18228;SDS011;9239;50.932;3.142;2022-12-29T02:24:08;2.33;;;1.20;;
18228;SDS011;9239;50.932;3.142;2022-12-29T02:27:01;3.77;;;1.40;;
18228;SDS011;9239;50.932;3.142;2022-12-29T02:30:06;4.17;;;1.27;;
18228;SDS011;9239;50.932;3.142;2022-12-29T02:32:45;2.33;;;1.07;;
18228;SDS011;9239;50.932;3.142;2022-12-29T02:35:21;4.43;;;1.70;;
18228;SDS011;9239;50.932;3.142;2022-12-29T02:37:58;3.50;;;1.23;;
18228;SDS011;9239;50.932;3.142;2022-12-29T02:40:36;1.43;;;0.83;;
18228;SDS011;9239;50.932;3.142;2022-12-29T02:43:08;4.23;;;0.90;;
18228;SDS011;9239;50.932;3.142;2022-12-29T02:45:43;2.77;;;1.00;;
18228;SDS011;9239;50.932;3.142;2022-12-29T02:48:16;3.60;;;1.00;;
18228;SDS011;9239;50.932;3.142;2022-12-29T02:50:50;4.97;;;1.43;;
18228;SDS011;9239;50.932;3.142;2022-12-29T02:53:23;9.43;;;1.67;;
18228;SDS011;9239;50.932;3.142;2022-12-29T02:56:05;5.83;;;1.50;;
18228;SDS011;9239;50.932;3.142;2022-12-29T02:58:32;7.13;;;1.80;;
18228;SDS011;9239;50.932;3.142;2022-12-29T03:01:03;7.33;;;1.60;;
18228;SDS011;9239;50.932;3.142;2022-12-29T03:03:46;6.10;;;2.17;;
18228;SDS011;9239;50.932;3.142;2022-12-29T03:06:27;9.37;;;2.17;;
18228;SDS011;9239;50.932;3.142;2022-12-29T03:09:07;6.23;;;2.00;;
18228;SDS011;9239;50.932;3.142;2022-12-29T03:11:45;9.17;;;1.80;;
18228;SDS011;9239;50.932;3.142;2022-12-29T03:14:34;5.60;;;1.70;;
18228;SDS011;9239;50.932;3.142;2022-12-29T03:17:26;7.03;;;1.80;;
18228;SDS011;9239;50.932;3.142;2022-12-29T03:19:59;9.63;;;2.10;;
18228;SDS011;9239;50.932;3.142;2022-12-29T03:22:31;8.57;;;2.43;;
18228;SDS011;9239;50.932;3.142;2022-12-29T03:25:03;4.33;;;1.70;;
18228;SDS011;9239;50.932;3.142;2022-12-29T03:27:36;8.03;;;2.40;;
18228;SDS011;9239;50.932;3.142;2022-12-29T03:30:06;8.20;;;1.97;;
18228;SDS011;9239;50.932;3.142;2022-12-29T03:32:36;6.67;;;2.00;;
18228;SDS011;9239;50.932;3.142;2022-12-29T03:35:08;11.77;;;2.57;;
18228;SDS011;9239;50.932;3.142;2022-12-29T03:37:40;9.30;;;2.37;;
18228;SDS011;9239;50.932;3.142;2022-12-29T03:40:11;6.27;;;2.17;;
18228;SDS011;9239;50.932;3.142;2022-12-29T03:42:38;7.83;;;2.03;;
18228;SDS011;9239;50.932;3.142;2022-12-29T03:45:07;9.47;;;2.30;;
18228;SDS011;9239;50.932;3.142;2022-12-29T03:47:35;6.07;;;1.87;;
18228;SDS011;9239;50.932;3.142;2022-12-29T03:50:02;7.47;;;1.97;;
18228;SDS011;9239;50.932;3.142;2022-12-29T03:52:30;7.13;;;2.33;;
18228;SDS011;9239;50.932;3.142;2022-12-29T03:54:57;4.57;;;1.73;;
18228;SDS011;9239;50.932;3.142;2022-12-29T03:57:24;4.53;;;1.77;;
18228;SDS011;9239;50.932;3.142;2022-12-29T03:59:51;10.07;;;2.13;;
18228;SDS011;9239;50.932;3.142;2022-12-29T04:02:17;7.17;;;2.50;;
18228;SDS011;9239;50.932;3.142;2022-12-29T04:04:44;4.83;;;2.07;;
18228;SDS011;9239;50.932;3.142;2022-12-29T04:07:11;8.97;;;2.17;;
18228;SDS011;9239;50.932;3.142;2022-12-29T04:09:39;7.43;;;2.00;;
18228;SDS011;9239;50.932;3.142;2022-12-29T04:12:06;4.37;;;1.47;;
18228;SDS011;9239;50.932;3.142;2022-12-29T04:14:33;6.50;;;2.00;;
18228;SDS011;9239;50.932;3.142;2022-12-29T04:17:00;6.07;;;1.77;;
18228;SDS011;9239;50.932;3.142;2022-12-29T04:19:26;3.97;;;1.60;;
18228;SDS011;9239;50.932;3.142;2022-12-29T04:21:53;5.70;;;1.60;;
18228;SDS011;9239;50.932;3.142;2022-12-29T04:24:20;8.97;;;2.10;;
18228;SDS011;9239;50.932;3.142;2022-12-29T04:26:48;8.30;;;2.00;;
18228;SDS011;9239;50.932;3.142;2022-12-29T04:29:15;6.43;;;1.80;;
18228;SDS011;9239;50.932;3.142;2022-12-29T04:31:42;7.97;;;1.73;;
18228;SDS011;9239;50.932;3.142;2022-12-29T04:34:09;6.30;;;1.53;;
18228;SDS011;9239;50.932;3.142;2022-12-29T04:36:36;5.37;;;2.60;;
18228;SDS011;9239;50.932;3.142;2022-12-29T04:39:04;6.00;;;2.00;;
18228;SDS011;9239;50.932;3.142;2022-12-29T04:41:31;6.77;;;1.47;;
18228;SDS011;9239;50.932;3.142;2022-12-29T04:44:00;4.30;;;1.47;;
18228;SDS011;9239;50.932;3.142;2022-12-29T04:46:27;4.80;;;1.27;;
18228;SDS011;9239;50.932;3.142;2022-12-29T04:48:53;5.40;;;1.53;;
18228;SDS011;9239;50.932;3.142;2022-12-29T04:51:20;4.63;;;1.33;;
18228;SDS011;9239;50.932;3.142;2022-12-29T04:53:47;7.03;;;1.47;;
18228;SDS011;9239;50.932;3.142;2022-12-29T04:56:14;4.57;;;1.80;;
18228;SDS011;9239;50.932;3.142;2022-12-29T04:58:41;3.80;;;1.23;;
18228;SDS011;9239;50.932;3.142;2022-12-29T05:01:09;6.97;;;1.50;;
18228;SDS011;9239;50.932;3.142;2022-12-29T05:03:36;6.33;;;1.83;;
18228;SDS011;9239;50.932;3.142;2022-12-29T05:06:02;7.57;;;1.53;;
18228;SDS011;9239;50.932;3.142;2022-12-29T05:08:29;3.73;;;1.17;;
18228;SDS011;9239;50.932;3.142;2022-12-29T05:10:56;6.27;;;1.87;;
18228;SDS011;9239;50.932;3.142;2022-12-29T05:13:23;8.43;;;2.03;;
18228;SDS011;9239;50.932;3.142;2022-12-29T05:15:50;5.13;;;1.60;;
18228;SDS011;9239;50.932;3.142;2022-12-29T05:18:19;4.00;;;1.30;;
18228;SDS011;9239;50.932;3.142;2022-12-29T05:20:46;4.27;;;2.00;;
18228;SDS011;9239;50.932;3.142;2022-12-29T05:23:13;8.83;;;2.00;;
18228;SDS011;9239;50.932;3.142;2022-12-29T05:25:40;7.50;;;2.17;;
18228;SDS011;9239;50.932;3.142;2022-12-29T05:28:10;4.80;;;1.70;;
18228;SDS011;9239;50.932;3.142;2022-12-29T05:30:36;5.77;;;1.73;;
18228;SDS011;9239;50.932;3.142;2022-12-29T05:33:03;7.30;;;1.53;;
18228;SDS011;9239;50.932;3.142;2022-12-29T05:35:32;8.43;;;2.50;;
18228;SDS011;9239;50.932;3.142;2022-12-29T05:37:59;3.97;;;1.63;;
18228;SDS011;9239;50.932;3.142;2022-12-29T05:40:26;13.37;;;2.40;;
18228;SDS011;9239;50.932;3.142;2022-12-29T05:42:53;10.43;;;3.10;;
18228;SDS011;9239;50.932;3.142;2022-12-29T05:45:20;10.83;;;2.10;;
18228;SDS011;9239;50.932;3.142;2022-12-29T05:47:46;6.63;;;2.30;;
18228;SDS011;9239;50.932;3.142;2022-12-29T05:50:13;8.63;;;2.40;;
18228;SDS011;9239;50.932;3.142;2022-12-29T05:52:42;6.47;;;2.40;;
18228;SDS011;9239;50.932;3.142;2022-12-29T05:55:09;8.60;;;2.93;;
18228;SDS011;9239;50.932;3.142;2022-12-29T05:57:36;5.20;;;1.60;;
18228;SDS011;9239;50.932;3.142;2022-12-29T06:00:03;9.50;;;2.30;;
18228;SDS011;9239;50.932;3.142;2022-12-29T06:02:30;8.37;;;2.17;;
18228;SDS011;9239;50.932;3.142;2022-12-29T06:04:57;7.87;;;2.00;;
18228;SDS011;9239;50.932;3.142;2022-12-29T06:07:24;6.17;;;2.50;;
18228;SDS011;9239;50.932;3.142;2022-12-29T06:09:52;8.67;;;1.90;;
18228;SDS011;9239;50.932;3.142;2022-12-29T06:12:18;7.97;;;2.83;;
18228;SDS011;9239;50.932;3.142;2022-12-29T06:14:45;12.27;;;3.07;;
18228;SDS011;9239;50.932;3.142;2022-12-29T06:17:12;12.53;;;3.00;;
18228;SDS011;9239;50.932;3.142;2022-12-29T06:19:39;6.93;;;2.40;;
18228;SDS011;9239;50.932;3.142;2022-12-29T06:22:06;12.90;;;3.73;;
18228;SDS011;9239;50.932;3.142;2022-12-29T06:24:33;9.93;;;4.03;;
18228;SDS011;9239;50.932;3.142;2022-12-29T06:27:01;11.47;;;3.03;;
18228;SDS011;9239;50.932;3.142;2022-12-29T06:29:28;12.20;;;2.63;;
18228;SDS011;9239;50.932;3.142;2022-12-29T06:31:55;11.30;;;2.50;;
18228;SDS011;9239;50.932;3.142;2022-12-29T06:34:23;13.83;;;2.57;;
18228;SDS011;9239;50.932;3.142;2022-12-29T06:36:50;10.53;;;2.50;;
18228;SDS011;9239;50.932;3.142;2022-12-29T06:39:17;9.80;;;2.93;;
18228;SDS011;9239;50.932;3.142;2022-12-29T06:41:43;11.43;;;3.07;;
18228;SDS011;9239;50.932;3.142;2022-12-29T06:44:11;8.13;;;2.30;;
18228;SDS011;9239;50.932;3.142;2022-12-29T06:46:38;9.27;;;2.30;;
18228;SDS011;9239;50.932;3.142;2022-12-29T06:49:05;7.20;;;2.10;;
18228;SDS011;9239;50.932;3.142;2022-12-29T06:51:32;6.83;;;2.00;;
18228;SDS011;9239;50.932;3.142;2022-12-29T06:53:59;7.40;;;2.70;;
18228;SDS011;9239;50.932;3.142;2022-12-29T06:56:26;8.77;;;2.70;;
18228;SDS011;9239;50.932;3.142;2022-12-29T06:58:52;6.83;;;1.90;;
18228;SDS011;9239;50.932;3.142;2022-12-29T07:01:20;7.73;;;2.47;;
18228;SDS011;9239;50.932;3.142;2022-12-29T07:03:47;9.80;;;3.07;;
18228;SDS011;9239;50.932;3.142;2022-12-29T07:06:14;7.73;;;2.23;;
18228;SDS011;9239;50.932;3.142;2022-12-29T07:08:41;5.77;;;2.27;;
18228;SDS011;9239;50.932;3.142;2022-12-29T07:11:08;5.57;;;2.20;;
18228;SDS011;9239;50.932;3.142;2022-12-29T07:13:35;9.50;;;2.40;;
18228;SDS011;9239;50.932;3.142;2022-12-29T07:16:04;12.70;;;2.43;;
18228;SDS011;9239;50.932;3.142;2022-12-29T07:18:33;10.03;;;2.33;;
18228;SDS011;9239;50.932;3.142;2022-12-29T07:21:01;7.03;;;1.80;;
18228;SDS011;9239;50.932;3.142;2022-12-29T07:23:29;10.07;;;2.50;;
18228;SDS011;9239;50.932;3.142;2022-12-29T07:25:59;6.80;;;2.30;;
18228;SDS011;9239;50.932;3.142;2022-12-29T07:28:27;11.40;;;3.30;;
18228;SDS011;9239;50.932;3.142;2022-12-29T07:30:54;11.43;;;2.83;;
18228;SDS011;9239;50.932;3.142;2022-12-29T07:33:20;10.27;;;2.50;;
18228;SDS011;9239;50.932;3.142;2022-12-29T07:35:49;11.93;;;3.23;;
18228;SDS011;9239;50.932;3.142;2022-12-29T07:38:17;6.00;;;2.00;;
18228;SDS011;9239;50.932;3.142;2022-12-29T07:40:43;6.00;;;2.23;;
18228;SDS011;9239;50.932;3.142;2022-12-29T07:43:10;9.27;;;2.50;;
18228;SDS011;9239;50.932;3.142;2022-12-29T07:45:37;16.40;;;2.70;;
18228;SDS011;9239;50.932;3.142;2022-12-29T07:48:04;10.10;;;2.20;;
18228;SDS011;9239;50.932;3.142;2022-12-29T07:50:33;3.73;;;1.17;;
18228;SDS011;9239;50.932;3.142;2022-12-29T07:53:01;4.47;;;1.90;;
18228;SDS011;9239;50.932;3.142;2022-12-29T07:55:29;11.73;;;2.30;;
18228;SDS011;9239;50.932;3.142;2022-12-29T07:57:56;7.60;;;2.10;;
18228;SDS011;9239;50.932;3.142;2022-12-29T08:00:23;7.70;;;1.80;;
18228;SDS011;9239;50.932;3.142;2022-12-29T08:02:49;7.70;;;2.47;;
18228;SDS011;9239;50.932;3.142;2022-12-29T08:05:16;13.20;;;3.13;;
18228;SDS011;9239;50.932;3.142;2022-12-29T08:07:44;9.60;;;3.00;;
18228;SDS011;9239;50.932;3.142;2022-12-29T08:10:13;12.63;;;3.23;;
18228;SDS011;9239;50.932;3.142;2022-12-29T08:12:41;10.47;;;3.27;;
18228;SDS011;9239;50.932;3.142;2022-12-29T08:15:08;7.27;;;2.10;;
18228;SDS011;9239;50.932;3.142;2022-12-29T08:17:36;9.43;;;2.67;;
18228;SDS011;9239;50.932;3.142;2022-12-29T08:20:04;13.07;;;3.10;;
18228;SDS011;9239;50.932;3.142;2022-12-29T08:22:31;8.27;;;2.77;;
18228;SDS011;9239;50.932;3.142;2022-12-29T08:24:58;10.70;;;2.60;;
18228;SDS011;9239;50.932;3.142;2022-12-29T08:27:26;9.60;;;3.17;;
18228;SDS011;9239;50.932;3.142;2022-12-29T08:29:53;9.70;;;2.50;;
18228;SDS011;9239;50.932;3.142;2022-12-29T08:32:20;12.20;;;2.67;;
18228;SDS011;9239;50.932;3.142;2022-12-29T08:34:47;15.13;;;3.70;;
18228;SDS011;9239;50.932;3.142;2022-12-29T08:37:14;14.33;;;4.90;;
18228;SDS011;9239;50.932;3.142;2022-12-29T08:39:40;7.33;;;2.50;;
18228;SDS011;9239;50.932;3.142;2022-12-29T08:42:07;7.90;;;3.10;;
18228;SDS011;9239;50.932;3.142;2022-12-29T08:44:35;16.23;;;3.93;;
18228;SDS011;9239;50.932;3.142;2022-12-29T08:47:02;10.23;;;3.33;;
18228;SDS011;9239;50.932;3.142;2022-12-29T08:49:30;11.57;;;2.90;;
18228;SDS011;9239;50.932;3.142;2022-12-29T08:51:58;10.10;;;3.37;;
18228;SDS011;9239;50.932;3.142;2022-12-29T08:54:25;11.60;;;4.10;;
18228;SDS011;9239;50.932;3.142;2022-12-29T08:56:52;12.20;;;3.30;;
18228;SDS011;9239;50.932;3.142;2022-12-29T08:59:18;11.80;;;3.70;;
18228;SDS011;9239;50.932;3.142;2022-12-29T09:01:47;12.30;;;3.20;;
18228;SDS011;9239;50.932;3.142;2022-12-29T09:04:14;12.63;;;3.07;;
18228;SDS011;9239;50.932;3.142;2022-12-29T09:06:40;16.53;;;3.50;;
18228;SDS011;9239;50.932;3.142;2022-12-29T09:09:08;11.03;;;4.63;;
18228;SDS011;9239;50.932;3.142;2022-12-29T09:11:35;17.30;;;4.30;;
18228;SDS011;9239;50.932;3.142;2022-12-29T09:14:02;10.17;;;3.27;;
18228;SDS011;9239;50.932;3.142;2022-12-29T09:16:29;12.60;;;4.60;;
18228;SDS011;9239;50.932;3.142;2022-12-29T09:18:57;15.40;;;3.73;;
18228;SDS011;9239;50.932;3.142;2022-12-29T09:21:24;15.90;;;3.80;;
18228;SDS011;9239;50.932;3.142;2022-12-29T09:23:51;11.60;;;3.17;;
18228;SDS011;9239;50.932;3.142;2022-12-29T09:26:18;12.00;;;3.17;;
18228;SDS011;9239;50.932;3.142;2022-12-29T09:28:45;11.83;;;3.93;;
18228;SDS011;9239;50.932;3.142;2022-12-29T09:31:12;9.73;;;3.07;;
18228;SDS011;9239;50.932;3.142;2022-12-29T09:33:39;10.50;;;2.73;;
18228;SDS011;9239;50.932;3.142;2022-12-29T09:36:08;10.23;;;3.90;;
18228;SDS011;9239;50.932;3.142;2022-12-29T09:38:35;7.97;;;2.13;;
18228;SDS011;9239;50.932;3.142;2022-12-29T09:41:05;10.50;;;3.07;;
18228;SDS011;9239;50.932;3.142;2022-12-29T09:43:43;12.40;;;3.93;;
18228;SDS011;9239;50.932;3.142;2022-12-29T09:46:18;10.37;;;3.50;;
18228;SDS011;9239;50.932;3.142;2022-12-29T09:48:52;13.70;;;3.70;;
18228;SDS011;9239;50.932;3.142;2022-12-29T09:51:33;15.67;;;4.30;;
18228;SDS011;9239;50.932;3.142;2022-12-29T09:54:04;13.20;;;3.90;;
18228;SDS011;9239;50.932;3.142;2022-12-29T09:56:49;11.03;;;2.80;;
18228;SDS011;9239;50.932;3.142;2022-12-29T09:59:19;10.07;;;3.17;;
18228;SDS011;9239;50.932;3.142;2022-12-29T10:01:51;15.57;;;4.00;;
18228;SDS011;9239;50.932;3.142;2022-12-29T10:04:25;15.23;;;3.37;;
18228;SDS011;9239;50.932;3.142;2022-12-29T10:06:56;12.77;;;3.17;;
18228;SDS011;9239;50.932;3.142;2022-12-29T10:09:30;14.60;;;3.53;;
18228;SDS011;9239;50.932;3.142;2022-12-29T10:12:06;12.03;;;3.10;;
18228;SDS011;9239;50.932;3.142;2022-12-29T10:14:47;9.33;;;2.63;;
18228;SDS011;9239;50.932;3.142;2022-12-29T10:17:24;10.60;;;2.93;;
18228;SDS011;9239;50.932;3.142;2022-12-29T10:20:07;12.73;;;3.07;;
18228;SDS011;9239;50.932;3.142;2022-12-29T10:22:50;5.43;;;2.47;;
18228;SDS011;9239;50.932;3.142;2022-12-29T10:25:24;7.30;;;2.63;;
18228;SDS011;9239;50.932;3.142;2022-12-29T10:27:55;10.10;;;2.23;;
18228;SDS011;9239;50.932;3.142;2022-12-29T10:30:24;5.10;;;1.80;;
18228;SDS011;9239;50.932;3.142;2022-12-29T10:32:52;8.03;;;2.13;;
18228;SDS011;9239;50.932;3.142;2022-12-29T10:35:24;7.80;;;2.00;;
18228;SDS011;9239;50.932;3.142;2022-12-29T10:37:54;7.27;;;2.43;;
18228;SDS011;9239;50.932;3.142;2022-12-29T10:40:27;4.50;;;1.60;;
18228;SDS011;9239;50.932;3.142;2022-12-29T10:42:59;5.73;;;1.90;;
18228;SDS011;9239;50.932;3.142;2022-12-29T10:45:28;8.60;;;2.43;;
18228;SDS011;9239;50.932;3.142;2022-12-29T10:48:02;7.63;;;2.10;;
18228;SDS011;9239;50.932;3.142;2022-12-29T10:50:32;7.97;;;1.97;;
18228;SDS011;9239;50.932;3.142;2022-12-29T10:53:02;6.57;;;2.37;;
18228;SDS011;9239;50.932;3.142;2022-12-29T10:55:31;10.10;;;3.70;;
18228;SDS011;9239;50.932;3.142;2022-12-29T10:58:02;10.53;;;2.87;;
18228;SDS011;9239;50.932;3.142;2022-12-29T11:00:32;7.13;;;2.50;;
18228;SDS011;9239;50.932;3.142;2022-12-29T11:05:52;8.27;;;3.17;;
18228;SDS011;9239;50.932;3.142;2022-12-29T11:08:25;10.00;;;2.60;;
18228;SDS011;9239;50.932;3.142;2022-12-29T11:10:59;10.90;;;2.70;;
18228;SDS011;9239;50.932;3.142;2022-12-29T11:13:28;9.73;;;3.43;;
18228;SDS011;9239;50.932;3.142;2022-12-29T11:15:56;12.67;;;3.40;;
18228;SDS011;9239;50.932;3.142;2022-12-29T11:18:25;11.30;;;3.47;;
18228;SDS011;9239;50.932;3.142;2022-12-29T11:20:53;12.40;;;3.10;;
18228;SDS011;9239;50.932;3.142;2022-12-29T11:23:35;9.40;;;3.57;;
18228;SDS011;9239;50.932;3.142;2022-12-29T11:26:07;10.00;;;3.03;;
18228;SDS011;9239;50.932;3.142;2022-12-29T11:28:40;9.80;;;3.50;;
18228;SDS011;9239;50.932;3.142;2022-12-29T11:31:08;11.77;;;3.77;;
18228;SDS011;9239;50.932;3.142;2022-12-29T11:33:36;10.57;;;2.83;;
18228;SDS011;9239;50.932;3.142;2022-12-29T11:36:05;11.10;;;3.50;;
18228;SDS011;9239;50.932;3.142;2022-12-29T11:38:36;11.97;;;3.10;;
18228;SDS011;9239;50.932;3.142;2022-12-29T11:41:05;10.03;;;3.17;;
18228;SDS011;9239;50.932;3.142;2022-12-29T11:43:37;6.30;;;2.40;;
18228;SDS011;9239;50.932;3.142;2022-12-29T11:46:06;10.60;;;3.40;;
18228;SDS011;9239;50.932;3.142;2022-12-29T11:48:42;10.27;;;2.80;;
18228;SDS011;9239;50.932;3.142;2022-12-29T11:51:09;6.50;;;3.10;;
18228;SDS011;9239;50.932;3.142;2022-12-29T11:53:39;11.20;;;3.20;;
18228;SDS011;9239;50.932;3.142;2022-12-29T11:56:12;13.53;;;3.50;;
18228;SDS011;9239;50.932;3.142;2022-12-29T11:58:42;10.17;;;2.70;;
18228;SDS011;9239;50.932;3.142;2022-12-29T12:01:11;7.97;;;2.20;;
18228;SDS011;9239;50.932;3.142;2022-12-29T12:03:44;10.13;;;2.30;;
18228;SDS011;9239;50.932;3.142;2022-12-29T12:06:15;3.77;;;1.77;;
18228;SDS011;9239;50.932;3.142;2022-12-29T12:08:51;5.63;;;1.43;;
18228;SDS011;9239;50.932;3.142;2022-12-29T12:11:22;6.20;;;1.80;;
18228;SDS011;9239;50.932;3.142;2022-12-29T12:13:58;6.30;;;2.07;;
18228;SDS011;9239;50.932;3.142;2022-12-29T12:16:30;5.50;;;1.70;;
18228;SDS011;9239;50.932;3.142;2022-12-29T12:19:02;4.17;;;1.70;;
18228;SDS011;9239;50.932;3.142;2022-12-29T12:21:38;3.63;;;1.67;;
18228;SDS011;9239;50.932;3.142;2022-12-29T12:24:11;6.07;;;1.70;;
18228;SDS011;9239;50.932;3.142;2022-12-29T12:27:02;5.23;;;1.40;;
18228;SDS011;9239;50.932;3.142;2022-12-29T12:29:40;6.50;;;2.20;;
18228;SDS011;9239;50.932;3.142;2022-12-29T12:32:13;8.53;;;2.13;;
18228;SDS011;9239;50.932;3.142;2022-12-29T12:34:45;7.77;;;3.43;;
18228;SDS011;9239;50.932;3.142;2022-12-29T12:40:17;10.83;;;2.23;;
18228;SDS011;9239;50.932;3.142;2022-12-29T12:43:05;7.63;;;2.40;;
18228;SDS011;9239;50.932;3.142;2022-12-29T12:45:49;8.10;;;2.43;;
18228;SDS011;9239;50.932;3.142;2022-12-29T12:48:30;6.27;;;1.60;;
18228;SDS011;9239;50.932;3.142;2022-12-29T12:51:13;6.97;;;2.37;;
18228;SDS011;9239;50.932;3.142;2022-12-29T12:53:51;6.43;;;1.87;;
18228;SDS011;9239;50.932;3.142;2022-12-29T12:56:37;9.67;;;2.73;;
18228;SDS011;9239;50.932;3.142;2022-12-29T12:59:26;3.87;;;1.37;;
18228;SDS011;9239;50.932;3.142;2022-12-29T13:02:08;3.50;;;2.47;;
18228;SDS011;9239;50.932;3.142;2022-12-29T13:04:56;1.67;;;0.83;;
18228;SDS011;9239;50.932;3.142;2022-12-29T13:07:34;2.30;;;1.10;;
18228;SDS011;9239;50.932;3.142;2022-12-29T13:10:30;2.97;;;1.30;;
18228;SDS011;9239;50.932;3.142;2022-12-29T13:13:16;4.10;;;1.40;;
18228;SDS011;9239;50.932;3.142;2022-12-29T13:15:57;5.97;;;1.23;;
18228;SDS011;9239;50.932;3.142;2022-12-29T13:18:31;3.30;;;1.07;;
18228;SDS011;9239;50.932;3.142;2022-12-29T13:21:04;2.63;;;1.20;;
18228;SDS011;9239;50.932;3.142;2022-12-29T13:23:37;5.10;;;1.57;;
18228;SDS011;9239;50.932;3.142;2022-12-29T13:26:11;5.60;;;1.50;;
18228;SDS011;9239;50.932;3.142;2022-12-29T13:28:49;5.43;;;1.30;;
18228;SDS011;9239;50.932;3.142;2022-12-29T13:31:20;3.00;;;1.13;;
18228;SDS011;9239;50.932;3.142;2022-12-29T13:33:58;3.37;;;1.17;;
18228;SDS011;9239;50.932;3.142;2022-12-29T13:36:31;3.03;;;1.00;;
18228;SDS011;9239;50.932;3.142;2022-12-29T13:39:04;3.87;;;1.13;;
18228;SDS011;9239;50.932;3.142;2022-12-29T13:41:37;3.67;;;1.10;;
18228;SDS011;9239;50.932;3.142;2022-12-29T13:44:09;2.60;;;1.27;;
18228;SDS011;9239;50.932;3.142;2022-12-29T13:46:42;3.77;;;1.47;;
18228;SDS011;9239;50.932;3.142;2022-12-29T13:49:12;3.27;;;1.20;;
18228;SDS011;9239;50.932;3.142;2022-12-29T13:51:43;1.33;;;0.90;;
18228;SDS011;9239;50.932;3.142;2022-12-29T13:54:18;5.43;;;1.63;;
18228;SDS011;9239;50.932;3.142;2022-12-29T13:57:01;2.90;;;1.30;;
18228;SDS011;9239;50.932;3.142;2022-12-29T13:59:40;3.47;;;1.10;;
18228;SDS011;9239;50.932;3.142;2022-12-29T14:02:21;3.70;;;1.13;;
18228;SDS011;9239;50.932;3.142;2022-12-29T14:04:55;2.97;;;1.30;;
18228;SDS011;9239;50.932;3.142;2022-12-29T14:07:26;4.50;;;1.40;;
18228;SDS011;9239;50.932;3.142;2022-12-29T14:09:55;7.03;;;1.50;;
18228;SDS011;9239;50.932;3.142;2022-12-29T14:12:28;5.13;;;1.67;;
18228;SDS011;9239;50.932;3.142;2022-12-29T14:18:03;4.23;;;1.40;;
18228;SDS011;9239;50.932;3.142;2022-12-29T14:20:37;5.60;;;1.70;;
18228;SDS011;9239;50.932;3.142;2022-12-29T14:23:15;4.23;;;1.77;;
18228;SDS011;9239;50.932;3.142;2022-12-29T14:25:53;4.77;;;1.53;;
18228;SDS011;9239;50.932;3.142;2022-12-29T14:28:22;3.13;;;1.50;;
18228;SDS011;9239;50.932;3.142;2022-12-29T14:30:53;6.33;;;1.50;;
18228;SDS011;9239;50.932;3.142;2022-12-29T14:33:21;8.33;;;2.00;;
18228;SDS011;9239;50.932;3.142;2022-12-29T14:35:51;9.43;;;1.93;;
18228;SDS011;9239;50.932;3.142;2022-12-29T14:38:19;6.67;;;1.40;;
18228;SDS011;9239;50.932;3.142;2022-12-29T14:43:54;7.53;;;2.73;;
18228;SDS011;9239;50.932;3.142;2022-12-29T14:46:26;5.93;;;2.00;;
18228;SDS011;9239;50.932;3.142;2022-12-29T14:49:08;5.83;;;1.90;;
18228;SDS011;9239;50.932;3.142;2022-12-29T14:51:42;10.87;;;1.93;;
18228;SDS011;9239;50.932;3.142;2022-12-29T15:00:02;6.03;;;2.33;;
18228;SDS011;9239;50.932;3.142;2022-12-29T15:02:36;6.17;;;2.20;;
18228;SDS011;9239;50.932;3.142;2022-12-29T15:07:51;6.03;;;2.33;;
18228;SDS011;9239;50.932;3.142;2022-12-29T15:10:19;6.67;;;1.93;;
18228;SDS011;9239;50.932;3.142;2022-12-29T15:12:49;7.97;;;2.10;;
18228;SDS011;9239;50.932;3.142;2022-12-29T15:15:20;6.30;;;1.30;;
18228;SDS011;9239;50.932;3.142;2022-12-29T15:17:50;4.50;;;1.63;;
18228;SDS011;9239;50.932;3.142;2022-12-29T15:20:22;5.87;;;1.80;;
18228;SDS011;9239;50.932;3.142;2022-12-29T15:22:52;6.43;;;2.30;;
18228;SDS011;9239;50.932;3.142;2022-12-29T15:25:22;6.03;;;2.53;;
18228;SDS011;9239;50.932;3.142;2022-12-29T15:27:50;5.43;;;2.00;;
18228;SDS011;9239;50.932;3.142;2022-12-29T15:30:18;8.80;;;1.83;;
18228;SDS011;9239;50.932;3.142;2022-12-29T15:32:46;6.07;;;1.67;;
18228;SDS011;9239;50.932;3.142;2022-12-29T15:35:26;5.80;;;1.90;;
18228;SDS011;9239;50.932;3.142;2022-12-29T15:37:58;10.93;;;2.30;;
18228;SDS011;9239;50.932;3.142;2022-12-29T15:40:27;8.83;;;2.27;;
18228;SDS011;9239;50.932;3.142;2022-12-29T15:42:59;10.40;;;2.50;;